Time;durP1;ratioP1;P1;durP2;ratioP2;P2;SDS_P1;SDS_P2;PMS_P1;PMS_P2;Temp;Humidity;BMP_temperature;BMP_pressure;BME280_temperature;BME280_humidity;BME280_pressure;Samples;Min_cycle;Max_cycle;Signal;HPM_P1;HPM_P2
2021/10/07 00:00:38;;;;;;;2.33;1.50;;;15.30;74.50;;;;;;4837580;29;20046;-79
2021/10/07 00:03:05;;;;;;;3.55;1.83;;;15.30;74.50;;;;;;4836246;29;20044;-79
2021/10/07 00:05:31;;;;;;;3.88;1.50;;;15.30;74.50;;;;;;4836557;29;20521;-80
2021/10/07 00:07:57;;;;;;;2.50;1.50;;;15.30;74.50;;;;;;4837340;29;20034;-82
2021/10/07 00:10:23;;;;;;;1.95;1.02;;;15.30;74.60;;;;;;4836352;29;20513;-80
2021/10/07 00:12:49;;;;;;;3.83;1.70;;;15.30;74.70;;;;;;4836522;29;20038;-82
2021/10/07 00:15:16;;;;;;;3.72;1.15;;;15.30;74.60;;;;;;4836616;29;20093;-81
2021/10/07 00:17:42;;;;;;;4.65;1.65;;;15.20;74.40;;;;;;4851015;29;20040;-80
2021/10/07 00:20:10;;;;;;;4.43;2.17;;;15.20;74.50;;;;;;4836944;29;20478;-80
2021/10/07 00:22:38;;;;;;;3.83;1.67;;;15.20;74.50;;;;;;4836772;29;20034;-81
2021/10/07 00:25:07;;;;;;;2.60;1.30;;;15.20;74.50;;;;;;4836154;29;20117;-80
2021/10/07 00:27:37;;;;;;;2.38;1.35;;;15.20;74.60;;;;;;4836042;29;20038;-80
2021/10/07 00:30:10;;;;;;;2.70;1.20;;;15.20;74.60;;;;;;4834904;29;20034;-82
2021/10/07 00:32:41;;;;;;;3.88;1.10;;;15.10;74.50;;;;;;4836409;29;20038;-80
2021/10/07 00:40:23;;;;;;;3.50;1.45;;;15.10;74.50;;;;;;4836421;29;20057;-79
2021/10/07 00:42:50;;;;;;;2.95;1.95;;;15.10;74.50;;;;;;4835289;29;20033;-80
2021/10/07 00:45:16;;;;;;;1.65;1.25;;;15.10;74.60;;;;;;4834901;29;20490;-81
2021/10/07 00:47:42;;;;;;;4.10;1.65;;;15.10;74.60;;;;;;4849450;29;20061;-83
2021/10/07 00:50:09;;;;;;;2.22;1.20;;;15.10;74.70;;;;;;4837254;29;20038;-82
2021/10/07 00:52:35;;;;;;;3.22;1.30;;;15.00;74.50;;;;;;4836621;29;20258;-82
2021/10/07 00:55:01;;;;;;;3.72;1.80;;;15.00;74.60;;;;;;4834340;29;20041;-83
2021/10/07 00:57:27;;;;;;;2.38;1.33;;;15.00;74.60;;;;;;4835777;29;20042;-82
2021/10/07 00:59:53;;;;;;;1.60;1.30;;;15.00;74.70;;;;;;4835517;29;20129;-81
2021/10/07 01:02:20;;;;;;;2.88;1.48;;;15.00;74.80;;;;;;4835708;29;20061;-81
2021/10/07 01:04:47;;;;;;;2.60;1.10;;;15.00;74.80;;;;;;4835155;29;20110;-85
2021/10/07 01:07:16;;;;;;;5.28;2.13;;;15.00;74.90;;;;;;4834831;29;20106;-82
2021/10/07 01:09:42;;;;;;;1.77;1.23;;;15.00;74.90;;;;;;4836367;29;20124;-82
2021/10/07 01:12:08;;;;;;;4.38;1.60;;;14.90;74.80;;;;;;4836148;29;20030;-83
2021/10/07 01:14:46;;;;;;;3.45;1.45;;;15.00;75.00;;;;;;4850194;29;20049;-82
2021/10/07 01:17:15;;;;;;;1.95;1.30;;;15.00;75.10;;;;;;4854123;29;20037;-82
2021/10/07 01:19:49;;;;;;;3.35;1.75;;;15.00;75.10;;;;;;4840952;29;20400;-81
2021/10/07 01:22:16;;;;;;;2.95;1.30;;;15.00;75.20;;;;;;4835944;29;20113;-81
2021/10/07 01:24:43;;;;;;;3.72;1.85;;;15.00;75.20;;;;;;4836109;29;20398;-82
2021/10/07 01:27:10;;;;;;;4.88;2.10;;;15.00;75.20;;;;;;4834883;29;20067;-83
2021/10/07 01:29:38;;;;;;;3.22;1.10;;;15.00;75.30;;;;;;4835676;29;20041;-81
2021/10/07 01:32:05;;;;;;;2.72;1.25;;;15.00;75.30;;;;;;4845342;29;20516;-81
2021/10/07 01:34:31;;;;;;;4.80;1.50;;;15.00;75.30;;;;;;4841020;29;20034;-82
2021/10/07 01:36:59;;;;;;;3.97;1.48;;;15.00;75.40;;;;;;4836089;29;20038;-81
2021/10/07 01:39:26;;;;;;;4.22;1.15;;;15.00;75.40;;;;;;4863776;29;20049;-83
2021/10/07 01:41:52;;;;;;;3.03;1.33;;;15.00;75.50;;;;;;4859556;29;20124;-82
2021/10/07 01:44:20;;;;;;;4.13;1.23;;;15.00;75.50;;;;;;4859005;29;20521;-82
2021/10/07 01:46:47;;;;;;;3.78;1.10;;;15.00;75.50;;;;;;4858797;29;20139;-83
2021/10/07 01:49:13;;;;;;;4.20;1.30;;;15.00;75.60;;;;;;4850537;29;20170;-81
2021/10/07 01:51:39;;;;;;;2.67;1.50;;;15.00;75.60;;;;;;4843617;29;20133;-84
2021/10/07 01:54:05;;;;;;;4.07;1.80;;;15.00;75.60;;;;;;4842308;29;20592;-81
2021/10/07 01:56:32;;;;;;;1.73;1.02;;;15.00;75.70;;;;;;4843068;29;20557;-81
2021/10/07 01:58:59;;;;;;;3.05;1.35;;;15.00;75.70;;;;;;4843824;29;20041;-81
2021/10/07 02:01:25;;;;;;;3.20;1.40;;;15.00;75.70;;;;;;4843423;29;20178;-86
2021/10/07 02:03:51;;;;;;;1.98;1.30;;;15.00;75.80;;;;;;4844005;29;20026;-85
2021/10/07 02:06:18;;;;;;;4.07;1.58;;;15.00;75.80;;;;;;4843457;29;20034;-81
2021/10/07 02:08:44;;;;;;;3.42;2.20;;;15.00;76.00;;;;;;4843720;29;20129;-81
2021/10/07 02:11:11;;;;;;;2.40;1.38;;;15.00;75.80;;;;;;4843174;29;20053;-81
2021/10/07 02:13:37;;;;;;;2.53;1.02;;;15.00;75.80;;;;;;4843505;29;20057;-82
2021/10/07 02:16:04;;;;;;;3.10;1.30;;;15.00;75.90;;;;;;4844952;29;20061;-81
2021/10/07 02:18:30;;;;;;;5.40;1.65;;;15.00;75.90;;;;;;4861926;29;20117;-82
2021/10/07 02:20:56;;;;;;;4.50;1.40;;;14.90;75.70;;;;;;4861641;29;20025;-82
2021/10/07 02:23:22;;;;;;;3.67;1.30;;;15.00;75.90;;;;;;4861054;29;20026;-82
2021/10/07 02:25:48;;;;;;;2.22;1.15;;;15.00;75.90;;;;;;4860291;29;20048;-81
2021/10/07 02:28:14;;;;;;;1.30;0.85;;;15.00;76.00;;;;;;4860332;29;20038;-82
2021/10/07 02:30:43;;;;;;;3.25;1.35;;;15.00;76.00;;;;;;4860390;29;20090;-80
2021/10/07 02:33:10;;;;;;;2.20;1.20;;;15.00;76.00;;;;;;4861770;29;20030;-82
2021/10/07 02:35:36;;;;;;;3.85;1.35;;;15.00;76.00;;;;;;4861283;29;20044;-82
2021/10/07 02:38:04;;;;;;;1.92;1.00;;;15.00;76.00;;;;;;4861598;29;20037;-83
2021/10/07 02:40:31;;;;;;;4.20;1.35;;;15.00;76.10;;;;;;4860359;29;20045;-82
2021/10/07 02:42:58;;;;;;;3.67;1.25;;;14.90;75.90;;;;;;4859887;29;20029;-82
2021/10/07 02:45:26;;;;;;;3.58;1.17;;;14.90;75.90;;;;;;4859987;29;20048;-84
2021/10/07 02:47:52;;;;;;;3.42;1.30;;;15.00;76.20;;;;;;4860901;29;20109;-81
2021/10/07 02:50:21;;;;;;;3.58;1.30;;;15.00;76.20;;;;;;4860847;29;20075;-82
2021/10/07 02:52:48;;;;;;;3.08;1.20;;;14.90;76.00;;;;;;4861352;29;20033;-82
2021/10/07 02:55:14;;;;;;;2.30;1.10;;;15.00;76.30;;;;;;4859784;29;20077;-82
2021/10/07 02:57:41;;;;;;;6.15;1.20;;;15.00;76.30;;;;;;4860915;29;20106;-82
2021/10/07 03:00:09;;;;;;;4.10;1.58;;;15.00;76.30;;;;;;4860727;29;20296;-81
2021/10/07 03:02:38;;;;;;;3.47;1.23;;;15.00;76.40;;;;;;4861454;29;20037;-83
2021/10/07 03:05:05;;;;;;;4.90;1.77;;;15.00;76.30;;;;;;4859664;29;20041;-82
2021/10/07 03:07:31;;;;;;;2.83;1.33;;;15.00;76.40;;;;;;4860720;29;20030;-81
2021/10/07 03:09:57;;;;;;;3.35;1.30;;;15.00;76.40;;;;;;4861032;29;20545;-83
2021/10/07 03:12:23;;;;;;;3.33;1.23;;;15.00;76.40;;;;;;4861130;29;20048;-82
2021/10/07 03:14:49;;;;;;;3.17;1.55;;;15.00;76.40;;;;;;4860418;29;20501;-82
2021/10/07 03:17:18;;;;;;;3.08;1.48;;;15.00;76.40;;;;;;4859846;29;20043;-82
2021/10/07 03:19:44;;;;;;;2.45;0.88;;;15.10;76.60;;;;;;4859972;29;20106;-82
2021/10/07 03:22:11;;;;;;;1.98;1.42;;;15.00;76.40;;;;;;4859768;29;20041;-82
2021/10/07 03:24:37;;;;;;;4.80;1.15;;;15.10;76.60;;;;;;4860685;29;20029;-80
2021/10/07 03:27:04;;;;;;;1.77;1.10;;;15.10;76.60;;;;;;4860513;29;20037;-79
2021/10/07 03:29:31;;;;;;;2.45;1.15;;;15.10;76.60;;;;;;4860551;29;20037;-81
2021/10/07 03:31:57;;;;;;;3.20;1.38;;;15.10;76.60;;;;;;4860448;29;20029;-82
2021/10/07 03:34:23;;;;;;;1.58;0.98;;;15.10;76.60;;;;;;4860746;29;20034;-82
2021/10/07 03:36:50;;;;;;;3.20;0.90;;;15.10;76.60;;;;;;4860432;29;20064;-82
2021/10/07 03:39:16;;;;;;;3.75;1.00;;;15.10;76.60;;;;;;4858490;29;20059;-81
2021/10/07 03:41:42;;;;;;;2.38;1.05;;;15.10;76.60;;;;;;4860591;29;20402;-83
2021/10/07 03:44:08;;;;;;;4.43;1.42;;;15.10;76.60;;;;;;4860559;29;20033;-84
2021/10/07 03:46:34;;;;;;;4.45;2.08;;;15.10;76.70;;;;;;4858765;29;20550;-84
2021/10/07 03:49:00;;;;;;;3.38;1.15;;;15.10;76.70;;;;;;4860123;29;20089;-81
2021/10/07 03:51:26;;;;;;;2.78;1.30;;;15.10;76.70;;;;;;4860019;29;20040;-82
2021/10/07 03:53:52;;;;;;;4.15;1.10;;;15.10;76.70;;;;;;4859918;29;20097;-82
2021/10/07 03:56:18;;;;;;;2.75;1.15;;;15.10;76.70;;;;;;4860143;29;20436;-82
2021/10/07 03:58:44;;;;;;;3.75;1.40;;;15.10;76.70;;;;;;4860364;29;20285;-80
2021/10/07 04:01:10;;;;;;;1.35;0.90;;;15.10;76.80;;;;;;4859313;29;20037;-82
2021/10/07 04:03:36;;;;;;;2.45;1.40;;;15.10;76.80;;;;;;4859763;29;20041;-82
2021/10/07 04:06:02;;;;;;;1.95;1.27;;;15.10;76.80;;;;;;4859859;29;20033;-82
2021/10/07 04:08:28;;;;;;;1.75;1.00;;;15.10;76.80;;;;;;4859979;29;20607;-83
2021/10/07 04:10:54;;;;;;;2.00;1.02;;;15.10;76.90;;;;;;4858141;29;20037;-82
2021/10/07 04:13:22;;;;;;;2.15;1.20;;;15.10;76.90;;;;;;4859766;29;20037;-83
2021/10/07 04:15:49;;;;;;;2.80;1.35;;;15.10;76.90;;;;;;4859801;29;20044;-84
2021/10/07 04:18:17;;;;;;;2.33;1.00;;;15.10;76.90;;;;;;4859285;29;20423;-82
2021/10/07 04:20:45;;;;;;;2.88;1.40;;;15.10;76.90;;;;;;4859730;29;20045;-81
2021/10/07 04:23:16;;;;;;;1.77;1.05;;;15.20;77.10;;;;;;4858607;29;20044;-82
2021/10/07 04:25:42;;;;;;;3.67;1.15;;;15.10;77.00;;;;;;4859921;29;20382;-81
2021/10/07 04:28:08;;;;;;;1.73;1.00;;;15.10;77.00;;;;;;4859029;29;20029;-81
2021/10/07 04:30:38;;;;;;;4.15;1.17;;;15.10;77.00;;;;;;4859557;29;20497;-81
2021/10/07 04:33:09;;;;;;;1.40;1.08;;;15.20;77.20;;;;;;4859486;29;20482;-81
2021/10/07 04:35:37;;;;;;;2.50;0.98;;;15.10;77.00;;;;;;4858530;29;20030;-80
2021/10/07 04:38:04;;;;;;;3.08;0.80;;;15.10;77.00;;;;;;4859061;29;20044;-80
2021/10/07 04:40:30;;;;;;;1.73;0.85;;;15.10;77.00;;;;;;4858789;29;20145;-81
2021/10/07 04:42:57;;;;;;;2.20;1.23;;;15.10;77.00;;;;;;4857513;29;20040;-81
2021/10/07 04:45:23;;;;;;;4.55;1.92;;;15.10;77.10;;;;;;4858104;29;20124;-84
2021/10/07 04:47:49;;;;;;;2.20;1.15;;;15.10;77.10;;;;;;4852667;29;20075;-80
2021/10/07 04:50:16;;;;;;;2.42;1.67;;;15.10;77.10;;;;;;4837161;29;20553;-81
2021/10/07 04:52:42;;;;;;;1.95;1.10;;;15.10;77.10;;;;;;4837236;29;20113;-80
2021/10/07 04:55:09;;;;;;;2.47;0.90;;;15.10;77.10;;;;;;4837659;29;20082;-80
2021/10/07 04:57:35;;;;;;;1.58;0.80;;;15.10;77.20;;;;;;4835987;29;20030;-81
2021/10/07 05:00:03;;;;;;;2.08;1.08;;;15.20;77.30;;;;;;4836896;29;20077;-81
2021/10/07 05:02:29;;;;;;;3.38;1.15;;;15.10;77.20;;;;;;4837340;29;20038;-82
2021/10/07 05:04:55;;;;;;;2.60;1.05;;;15.20;77.40;;;;;;4862413;29;20436;-81
2021/10/07 05:07:21;;;;;;;1.25;0.90;;;15.10;77.20;;;;;;4849336;29;20120;-80
2021/10/07 05:09:47;;;;;;;2.08;1.08;;;15.10;77.30;;;;;;4834647;29;20048;-81
2021/10/07 05:12:14;;;;;;;1.70;0.80;;;15.20;77.50;;;;;;4819752;29;20033;-81
2021/10/07 05:14:40;;;;;;;3.58;1.52;;;15.10;77.40;;;;;;4835780;29;20041;-80
2021/10/07 05:17:06;;;;;;;2.05;1.10;;;15.10;77.40;;;;;;4846156;29;20550;-81
2021/10/07 05:19:32;;;;;;;1.75;0.80;;;15.10;77.40;;;;;;4836591;29;20156;-84
2021/10/07 05:21:58;;;;;;;1.45;0.80;;;15.20;77.60;;;;;;4835292;29;20037;-85
2021/10/07 05:24:24;;;;;;;1.88;0.80;;;15.10;77.40;;;;;;4844747;29;20034;-86
2021/10/07 05:26:50;;;;;;;2.53;0.70;;;15.20;77.60;;;;;;4847241;29;20042;-88
2021/10/07 05:29:16;;;;;;;3.97;1.13;;;15.10;77.40;;;;;;4848207;29;20277;-86
2021/10/07 05:31:42;;;;;;;1.42;1.10;;;15.10;77.40;;;;;;4849422;29;20517;-83
2021/10/07 05:34:08;;;;;;;1.38;0.98;;;15.10;77.50;;;;;;4836045;29;20479;-83
2021/10/07 05:36:34;;;;;;;2.25;1.10;;;15.10;77.50;;;;;;4841790;29;20068;-82
2021/10/07 05:39:00;;;;;;;2.97;1.73;;;15.10;77.60;;;;;;4853346;29;20575;-82
2021/10/07 05:41:26;;;;;;;1.40;0.98;;;15.10;77.80;;;;;;4854498;29;20093;-84
2021/10/07 05:43:52;;;;;;;2.88;1.17;;;15.10;77.90;;;;;;4852412;29;20390;-83
2021/10/07 05:46:18;;;;;;;2.22;1.30;;;15.10;78.00;;;;;;4853701;29;20314;-85
2021/10/07 05:48:44;;;;;;;2.45;1.17;;;15.10;78.30;;;;;;4851172;29;20053;-82
2021/10/07 05:51:10;;;;;;;1.83;1.50;;;15.10;78.50;;;;;;4837677;29;20038;-82
2021/10/07 05:53:36;;;;;;;3.67;1.38;;;15.10;78.70;;;;;;4836392;29;20030;-82
2021/10/07 05:56:04;;;;;;;2.80;1.50;;;15.20;79.00;;;;;;4834200;29;20041;-80
2021/10/07 05:58:30;;;;;;;3.63;1.40;;;15.20;79.00;;;;;;4835327;29;20034;-82
2021/10/07 06:00:56;;;;;;;0.98;0.90;;;15.20;79.10;;;;;;4834681;29;20037;-81
2021/10/07 06:03:22;;;;;;;2.63;0.95;;;15.20;79.10;;;;;;4847978;29;20034;-83
2021/10/07 06:05:48;;;;;;;2.35;0.90;;;15.20;79.20;;;;;;4855080;29;20061;-83
2021/10/07 06:08:14;;;;;;;4.07;1.00;;;15.20;79.20;;;;;;4852665;29;20048;-81
2021/10/07 06:10:40;;;;;;;2.15;1.25;;;15.20;79.20;;;;;;4854400;29;20038;-82
2021/10/07 06:13:06;;;;;;;2.03;1.10;;;15.20;79.30;;;;;;4843581;29;20041;-85
2021/10/07 06:15:33;;;;;;;1.15;1.05;;;15.20;79.30;;;;;;4834706;29;20610;-83
2021/10/07 06:18:00;;;;;;;1.55;1.05;;;15.20;79.30;;;;;;4847656;29;20094;-83
2021/10/07 06:22:52;;;;;;;2.17;1.00;;;15.30;79.50;;;;;;4843979;29;20086;-82
2021/10/07 06:25:18;;;;;;;2.05;1.00;;;15.30;79.50;;;;;;4844933;29;20041;-82
2021/10/07 06:27:44;;;;;;;2.58;1.00;;;15.20;79.30;;;;;;4834499;29;20042;-84
2021/10/07 06:30:10;;;;;;;2.65;1.50;;;15.30;79.50;;;;;;4844773;29;20861;-85
2021/10/07 06:32:37;;;;;;;1.20;0.82;;;15.30;79.50;;;;;;4843800;29;20038;-85
2021/10/07 06:35:03;;;;;;;1.40;1.10;;;15.30;79.50;;;;;;4852205;29;20108;-83
2021/10/07 06:37:29;;;;;;;1.10;1.00;;;15.30;79.40;;;;;;4854496;29;20458;-87
2021/10/07 06:39:55;;;;;;;2.20;0.90;;;15.30;79.50;;;;;;4837607;29;20049;-85
2021/10/07 06:42:21;;;;;;;1.52;1.10;;;15.30;79.50;;;;;;4842077;29;20030;-89
2021/10/07 06:44:47;;;;;;;1.27;1.13;;;15.30;79.40;;;;;;4858577;29;20033;-89
2021/10/07 06:47:13;;;;;;;1.98;1.35;;;15.30;79.40;;;;;;4858183;29;20057;-87
2021/10/07 06:49:40;;;;;;;3.03;1.55;;;15.30;79.40;;;;;;4855402;29;20025;-89
2021/10/07 06:52:06;;;;;;;2.20;1.20;;;15.40;79.60;;;;;;4839323;29;20085;-90
2021/10/07 06:54:32;;;;;;;2.33;1.20;;;15.30;79.40;;;;;;4837476;29;20521;-87
2021/10/07 06:56:58;;;;;;;1.20;1.05;;;15.30;79.40;;;;;;4821761;29;20040;-86
2021/10/07 06:59:24;;;;;;;1.63;1.00;;;15.40;79.60;;;;;;4835817;29;20069;-88
2021/10/07 07:01:51;;;;;;;1.42;1.05;;;15.40;80.10;;;;;;4836426;29;20554;-88
2021/10/07 07:04:17;;;;;;;2.00;1.23;;;15.40;79.50;;;;;;4837822;29;20657;-89
2021/10/07 07:06:45;;;;;;;1.50;1.20;;;15.50;79.70;;;;;;4824155;29;20041;-88
2021/10/07 07:09:12;;;;;;;3.30;1.80;;;15.40;79.50;;;;;;4838462;29;20033;-88
2021/10/07 07:11:38;;;;;;;2.00;1.38;;;15.50;79.60;;;;;;4838138;29;20141;-88
2021/10/07 07:14:05;;;;;;;1.75;1.05;;;15.50;79.60;;;;;;4855627;29;20065;-87
2021/10/07 07:16:34;;;;;;;1.30;1.20;;;15.50;79.50;;;;;;4841750;29;20065;-89
2021/10/07 07:19:02;;;;;;;1.42;1.13;;;15.60;79.70;;;;;;4844485;29;20038;-87
2021/10/07 07:21:31;;;;;;;4.07;1.00;;;15.70;79.80;;;;;;4839248;29;20105;-90
2021/10/07 07:23:59;;;;;;;1.85;1.27;;;15.70;79.70;;;;;;4840141;29;20045;-89
2021/10/07 07:26:27;;;;;;;1.58;1.45;;;15.70;79.70;;;;;;4856445;29;20553;-89
2021/10/07 07:28:53;;;;;;;1.27;1.17;;;15.70;79.70;;;;;;4839921;29;20089;-87
2021/10/07 07:31:20;;;;;;;1.92;1.20;;;15.70;79.70;;;;;;4840710;29;20064;-89
2021/10/07 07:33:47;;;;;;;1.20;1.02;;;15.70;79.70;;;;;;4842357;29;20037;-92
2021/10/07 07:36:14;;;;;;;1.85;1.17;;;15.70;79.70;;;;;;4840057;29;20049;-89
2021/10/07 07:38:41;;;;;;;1.42;1.15;;;15.70;79.70;;;;;;4831337;29;20045;-89
2021/10/07 07:41:08;;;;;;;3.08;1.48;;;15.80;79.90;;;;;;4823280;29;20518;-89
2021/10/07 07:43:34;;;;;;;1.35;1.10;;;15.80;79.90;;;;;;4838857;29;20114;-89
2021/10/07 07:46:00;;;;;;;2.78;1.35;;;15.90;80.00;;;;;;4840429;29;20078;-90
2021/10/07 07:48:26;;;;;;;1.40;1.30;;;15.90;80.00;;;;;;4841741;29;20135;-89
2021/10/07 07:50:52;;;;;;;1.58;1.30;;;16.00;80.10;;;;;;4841173;29;20041;-88
2021/10/07 07:53:18;;;;;;;2.33;1.20;;;16.10;80.10;;;;;;4843609;29;20499;-89
2021/10/07 07:55:45;;;;;;;1.75;1.63;;;16.10;80.00;;;;;;4837173;29;20577;-90
2021/10/07 07:58:12;;;;;;;1.55;1.10;;;16.20;80.10;;;;;;4853616;29;20446;-85
2021/10/07 08:00:39;;;;;;;2.40;1.17;;;16.30;80.20;;;;;;4835454;29;20046;-85
2021/10/07 08:03:05;;;;;;;1.65;1.10;;;16.30;80.10;;;;;;4836119;29;20029;-87
2021/10/07 08:05:32;;;;;;;2.28;1.58;;;16.40;80.10;;;;;;4836966;29;20133;-85
2021/10/07 08:07:58;;;;;;;4.43;2.15;;;16.40;80.00;;;;;;4836345;29;20045;-90
2021/10/07 08:10:25;;;;;;;2.05;1.40;;;16.40;80.00;;;;;;4836921;29;20030;-88
2021/10/07 08:12:51;;;;;;;2.85;2.40;;;16.50;80.10;;;;;;4837003;29;20044;-89
2021/10/07 08:15:18;;;;;;;1.48;1.13;;;16.60;80.20;;;;;;4840435;29;20074;-90
2021/10/07 08:17:44;;;;;;;1.70;1.52;;;16.60;80.20;;;;;;4853966;29;20038;-88
2021/10/07 08:20:12;;;;;;;1.67;1.25;;;16.70;80.30;;;;;;4855535;29;20041;-86
2021/10/07 08:22:40;;;;;;;2.08;1.40;;;16.70;80.20;;;;;;4855111;29;20336;-85
2021/10/07 08:25:09;;;;;;;2.35;1.30;;;16.80;80.30;;;;;;4855098;29;20044;-85
2021/10/07 08:27:36;;;;;;;1.60;1.38;;;16.90;80.40;;;;;;4854273;29;20035;-88
2021/10/07 08:30:07;;;;;;;1.55;1.35;;;16.90;80.30;;;;;;4848941;29;20060;-85
2021/10/07 08:32:34;;;;;;;1.48;1.25;;;17.00;80.40;;;;;;4839037;29;20117;-89
2021/10/07 08:35:00;;;;;;;2.35;1.45;;;17.10;80.40;;;;;;4854111;29;20033;-88
2021/10/07 08:37:27;;;;;;;3.00;1.42;;;17.10;80.20;;;;;;4838635;29;20090;-88
2021/10/07 08:39:53;;;;;;;2.10;1.50;;;17.20;80.20;;;;;;4854267;29;20045;-85
2021/10/07 08:42:20;;;;;;;1.35;1.25;;;17.30;80.20;;;;;;4838421;29;20038;-84
2021/10/07 08:44:46;;;;;;;2.20;1.63;;;17.40;80.20;;;;;;4855205;29;20045;-82
2021/10/07 08:47:15;;;;;;;1.25;1.10;;;17.50;80.20;;;;;;4852977;29;20056;-83
2021/10/07 08:49:45;;;;;;;3.15;1.50;;;17.50;80.10;;;;;;4836484;29;20428;-83
2021/10/07 08:52:11;;;;;;;1.58;1.20;;;17.60;80.20;;;;;;4836273;29;20041;-84
2021/10/07 08:54:38;;;;;;;1.30;1.20;;;17.60;80.10;;;;;;4853271;29;20025;-82
2021/10/07 08:57:05;;;;;;;1.30;1.20;;;17.70;80.20;;;;;;4848288;29;20521;-83
2021/10/07 08:59:33;;;;;;;1.80;1.30;;;17.80;80.30;;;;;;4835714;29;20046;-87
2021/10/07 09:02:01;;;;;;;1.40;1.30;;;17.80;80.20;;;;;;4823014;29;20072;-83
2021/10/07 09:04:29;;;;;;;2.10;1.83;;;17.90;80.20;;;;;;4853164;29;20545;-83
2021/10/07 09:07:01;;;;;;;1.20;1.05;;;18.00;80.20;;;;;;4854563;29;20105;-83
2021/10/07 09:09:28;;;;;;;1.53;1.43;;;18.20;80.30;;;;;;4838005;29;20041;-82
2021/10/07 09:11:57;;;;;;;1.50;1.40;;;18.30;80.30;;;;;;4837332;29;20040;-85
2021/10/07 09:14:33;;;;;;;1.75;1.02;;;18.50;80.40;;;;;;4868451;29;20030;-90
2021/10/07 09:17:00;;;;;;;2.03;1.67;;;18.60;80.20;;;;;;4855218;29;20037;-85
2021/10/07 09:19:40;;;;;;;1.35;1.25;;;18.80;80.20;;;;;;4840160;29;20186;-84
2021/10/07 09:22:15;;;;;;;1.48;1.23;;;18.90;80.00;;;;;;4836160;29;20037;-85
2021/10/07 09:24:46;;;;;;;1.40;1.30;;;19.00;79.90;;;;;;4834618;29;20044;-85
2021/10/07 09:27:24;;;;;;;1.70;1.20;;;19.10;79.80;;;;;;4837220;29;20045;-83
2021/10/07 09:30:06;;;;;;;1.30;1.00;;;19.20;79.70;;;;;;4836173;29;20439;-85
2021/10/07 09:32:47;;;;;;;3.17;1.17;;;19.40;79.80;;;;;;4840455;29;20052;-86
2021/10/07 09:35:16;;;;;;;1.52;1.00;;;19.50;79.70;;;;;;4854809;29;20039;-85
2021/10/07 09:37:44;;;;;;;1.55;1.20;;;19.60;79.60;;;;;;4868525;29;20041;-82
2021/10/07 09:40:17;;;;;;;1.10;0.95;;;19.70;79.60;;;;;;4853977;29;20379;-83
2021/10/07 09:42:46;;;;;;;0.95;0.80;;;19.90;79.80;;;;;;4854704;29;20069;-88
2021/10/07 09:45:18;;;;;;;2.10;1.35;;;20.00;79.60;;;;;;4853702;29;20038;-85
2021/10/07 09:47:54;;;;;;;0.80;0.80;;;20.10;79.50;;;;;;4852924;29;20081;-84
2021/10/07 09:50:34;;;;;;;1.20;1.10;;;20.20;79.50;;;;;;4838597;29;20420;-83
2021/10/07 09:53:04;;;;;;;1.20;1.00;;;20.30;79.40;;;;;;4853084;29;20057;-84
2021/10/07 09:55:40;;;;;;;1.48;1.38;;;20.40;79.30;;;;;;4853208;29;20151;-83
2021/10/07 09:58:16;;;;;;;1.33;0.80;;;20.50;79.30;;;;;;4852221;29;20041;-84
2021/10/07 10:00:47;;;;;;;1.15;1.00;;;20.60;79.10;;;;;;4855236;29;20049;-83
2021/10/07 10:03:15;;;;;;;1.08;0.85;;;20.70;79.10;;;;;;4848817;29;20033;-84
2021/10/07 10:05:42;;;;;;;1.40;1.10;;;20.70;79.40;;;;;;4837714;29;20422;-87
2021/10/07 10:08:11;;;;;;;1.65;1.42;;;20.80;78.80;;;;;;4837935;29;20034;-86
2021/10/07 10:10:40;;;;;;;1.60;1.20;;;20.80;78.60;;;;;;4838098;29;20045;-86
2021/10/07 10:13:07;;;;;;;1.17;1.08;;;20.80;78.50;;;;;;4846400;29;20565;-92
2021/10/07 10:15:34;;;;;;;1.27;1.17;;;20.80;78.40;;;;;;4839405;29;20069;-87
2021/10/07 10:18:07;;;;;;;1.35;1.00;;;20.80;78.30;;;;;;4838031;29;20034;-86
2021/10/07 10:20:36;;;;;;;;;;;20.80;78.20;;;;;;4839427;29;20137;-87
2021/10/07 10:23:08;;;;;;;2.05;1.00;;;20.90;78.50;;;;;;4856222;29;19988;-91
2021/10/07 10:25:52;;;;;;;1.73;1.10;;;21.00;78.40;;;;;;4853215;29;20041;-87
2021/10/07 10:28:50;;;;;;;1.30;1.20;;;21.00;78.20;;;;;;4853458;29;20106;-90
2021/10/07 10:31:27;;;;;;;1.40;1.23;;;21.10;78.30;;;;;;4825021;29;20034;-91
2021/10/07 10:34:04;;;;;;;1.45;1.33;;;21.10;78.10;;;;;;4839417;29;20042;-90
2021/10/07 10:36:34;;;;;;;1.52;1.00;;;21.20;78.10;;;;;;4857682;29;20042;-90
2021/10/07 10:39:00;;;;;;;4.07;1.40;;;21.20;78.00;;;;;;4846775;29;20561;-88
2021/10/07 10:41:45;;;;;;;1.45;1.00;;;21.20;77.80;;;;;;4853289;29;20128;-88
2021/10/07 10:44:46;;;;;;;1.65;1.00;;;21.40;78.00;;;;;;4856817;29;20042;-89
2021/10/07 10:47:12;;;;;;;1.65;0.90;;;21.50;77.90;;;;;;4838885;29;20046;-88
2021/10/07 10:49:49;;;;;;;1.75;1.33;;;21.60;77.80;;;;;;4847208;29;20038;-89
2021/10/07 10:52:24;;;;;;;4.50;1.30;;;21.70;77.70;;;;;;4856023;29;20041;-89
2021/10/07 10:55:03;;;;;;;1.88;1.33;;;21.80;77.60;;;;;;4840175;29;20060;-91
2021/10/07 10:57:39;;;;;;;1.90;1.20;;;21.80;77.40;;;;;;4840341;29;20026;-88
2021/10/07 11:00:30;;;;;;;2.22;1.35;;;21.90;77.40;;;;;;4858118;29;20577;-89
2021/10/07 11:03:18;;;;;;;1.52;1.23;;;21.90;77.20;;;;;;4857017;29;20030;-84
2021/10/07 11:06:04;;;;;;;1.27;0.90;;;21.90;77.20;;;;;;4853454;29;20390;-87
2021/10/07 11:08:32;;;;;;;2.33;1.40;;;21.90;77.10;;;;;;4846961;29;20652;-87
2021/10/07 11:11:00;;;;;;;2.30;1.38;;;21.90;77.10;;;;;;4840725;29;20156;-86
2021/10/07 11:13:29;;;;;;;1.30;1.20;;;21.90;77.00;;;;;;4852860;29;20030;-86
2021/10/07 11:16:04;;;;;;;3.00;1.40;;;21.90;76.90;;;;;;4840706;29;20042;-85
2021/10/07 11:18:38;;;;;;;1.25;1.10;;;21.90;76.80;;;;;;4855661;29;20044;-84
2021/10/07 11:21:14;;;;;;;2.55;1.30;;;22.00;76.90;;;;;;4857596;29;20053;-84
2021/10/07 11:23:41;;;;;;;2.95;1.42;;;22.00;76.80;;;;;;4847459;29;20026;-91
2021/10/07 11:26:07;;;;;;;1.67;1.45;;;22.00;76.60;;;;;;4839813;29;20481;-87
2021/10/07 11:28:39;;;;;;;1.63;1.42;;;22.10;76.70;;;;;;4841701;29;20317;-87
2021/10/07 11:31:09;;;;;;;1.80;1.43;;;22.20;76.70;;;;;;4857175;29;20090;-86
2021/10/07 11:33:37;;;;;;;3.10;1.50;;;22.20;76.60;;;;;;4855943;29;20045;-83
2021/10/07 11:36:06;;;;;;;6.28;2.15;;;22.30;76.70;;;;;;4854656;29;20490;-88
2021/10/07 11:38:33;;;;;;;1.90;1.50;;;22.30;76.50;;;;;;4858576;29;20101;-86
2021/10/07 11:41:00;;;;;;;3.65;1.77;;;22.30;76.20;;;;;;4856468;29;20490;-87
2021/10/07 11:43:29;;;;;;;2.30;1.98;;;22.20;75.90;;;;;;4855022;29;20482;-87
2021/10/07 11:46:01;;;;;;;3.15;2.10;;;22.10;75.70;;;;;;4869970;29;20038;-85
2021/10/07 11:48:27;;;;;;;2.22;1.70;;;22.00;75.50;;;;;;4843276;29;20050;-85
2021/10/07 11:51:02;;;;;;;2.80;2.00;;;22.00;75.70;;;;;;4856391;29;20037;-85
2021/10/07 11:53:29;;;;;;;4.25;1.98;;;21.90;75.60;;;;;;4855454;29;20513;-83
2021/10/07 11:55:55;;;;;;;4.57;2.50;;;21.90;75.70;;;;;;4855813;29;20045;-85
2021/10/07 11:58:24;;;;;;;6.18;2.50;;;21.90;75.70;;;;;;4861594;29;20045;-87
2021/10/07 12:00:51;;;;;;;2.72;2.13;;;21.90;75.90;;;;;;4854606;29;20041;-87
2021/10/07 12:03:19;;;;;;;3.10;2.05;;;21.90;76.00;;;;;;4846097;29;20041;-86
2021/10/07 12:05:47;;;;;;;3.65;2.50;;;22.00;76.10;;;;;;4837198;29;20073;-86
2021/10/07 12:08:17;;;;;;;1.75;1.65;;;22.00;76.00;;;;;;4821089;29;20044;-86
2021/10/07 12:10:56;;;;;;;3.42;2.10;;;22.20;76.30;;;;;;4839808;29;20038;-88
2021/10/07 12:13:31;;;;;;;3.03;2.40;;;22.20;76.00;;;;;;4836466;29;20052;-84
2021/10/07 12:16:03;;;;;;;3.03;1.92;;;22.30;76.10;;;;;;4839218;29;20368;-90
2021/10/07 12:18:30;;;;;;;3.17;2.08;;;22.40;76.10;;;;;;4856081;29;20048;-85
2021/10/07 12:21:02;;;;;;;5.18;2.63;;;22.50;76.10;;;;;;4855736;29;20077;-86
2021/10/07 12:23:30;;;;;;;3.10;2.30;;;22.50;75.90;;;;;;4854589;29;20037;-88
2021/10/07 12:25:59;;;;;;;2.83;1.95;;;22.60;76.40;;;;;;4839553;29;20280;-84
2021/10/07 12:28:26;;;;;;;3.00;2.22;;;22.70;75.90;;;;;;4870600;29;20037;-92
2021/10/07 12:31:05;;;;;;;3.85;2.08;;;22.60;75.60;;;;;;4856138;29;20578;-89
2021/10/07 12:33:33;;;;;;;2.90;2.03;;;22.60;75.50;;;;;;4840599;29;20517;-87
2021/10/07 12:36:05;;;;;;;1.98;1.75;;;22.60;75.60;;;;;;4855392;29;20060;-86
2021/10/07 12:38:54;;;;;;;2.85;1.73;;;22.60;75.70;;;;;;4855404;29;20033;-84
2021/10/07 12:41:40;;;;;;;3.63;1.75;;;22.60;75.70;;;;;;4856856;29;20410;-86
2021/10/07 12:44:08;;;;;;;2.70;1.92;;;22.70;75.80;;;;;;4856301;29;20093;-86
2021/10/07 12:47:08;;;;;;;3.38;2.28;;;22.70;75.80;;;;;;4858291;29;20114;-88
2021/10/07 12:49:44;;;;;;;2.35;1.65;;;22.80;75.80;;;;;;4841532;29;20041;-92
2021/10/07 12:52:18;;;;;;;2.20;1.60;;;22.80;75.70;;;;;;4855615;29;20035;-87
2021/10/07 12:54:53;;;;;;;3.58;1.98;;;22.90;75.70;;;;;;4837240;29;20069;-91
2021/10/07 12:57:41;;;;;;;4.00;2.28;;;22.90;75.70;;;;;;4821453;29;20507;-89
2021/10/07 13:00:16;;;;;;;4.68;1.95;;;23.00;75.70;;;;;;4836184;29;20037;-87
2021/10/07 13:02:43;;;;;;;2.15;1.67;;;23.00;75.70;;;;;;4835396;29;20041;-88